sensor_id;sensor_type;location;lat;lon;timestamp;P1;durP1;ratioP1;P2;durP2;ratioP2
69244;SDS011;56357;52.304;4.870;2023-07-09T00:00:54;8.52;;;5.20;;
69244;SDS011;56357;52.304;4.870;2023-07-09T00:03:21;10.35;;;6.22;;
69244;SDS011;56357;52.304;4.870;2023-07-09T00:05:48;10.00;;;5.68;;
69244;SDS011;56357;52.304;4.870;2023-07-09T00:08:21;11.45;;;6.30;;
69244;SDS011;56357;52.304;4.870;2023-07-09T00:10:56;10.27;;;5.60;;
69244;SDS011;56357;52.304;4.870;2023-07-09T00:13:24;10.23;;;6.10;;
69244;SDS011;56357;52.304;4.870;2023-07-09T00:15:53;9.80;;;5.55;;
69244;SDS011;56357;52.304;4.870;2023-07-09T00:18:23;10.23;;;5.78;;
69244;SDS011;56357;52.304;4.870;2023-07-09T00:20:50;9.23;;;5.93;;
69244;SDS011;56357;52.304;4.870;2023-07-09T00:23:16;11.83;;;6.00;;
69244;SDS011;56357;52.304;4.870;2023-07-09T00:25:45;9.25;;;5.80;;
69244;SDS011;56357;52.304;4.870;2023-07-09T00:28:16;10.27;;;6.32;;
69244;SDS011;56357;52.304;4.870;2023-07-09T00:30:44;9.57;;;5.63;;
69244;SDS011;56357;52.304;4.870;2023-07-09T00:33:11;9.82;;;5.45;;
69244;SDS011;56357;52.304;4.870;2023-07-09T00:35:42;10.30;;;6.50;;
69244;SDS011;56357;52.304;4.870;2023-07-09T00:38:19;10.43;;;6.15;;
69244;SDS011;56357;52.304;4.870;2023-07-09T00:40:59;11.80;;;6.38;;
69244;SDS011;56357;52.304;4.870;2023-07-09T00:43:35;10.35;;;5.70;;
69244;SDS011;56357;52.304;4.870;2023-07-09T00:49:06;10.03;;;6.13;;
69244;SDS011;56357;52.304;4.870;2023-07-09T00:51:38;11.23;;;6.10;;
69244;SDS011;56357;52.304;4.870;2023-07-09T00:54:10;11.60;;;6.57;;
69244;SDS011;56357;52.304;4.870;2023-07-09T00:56:42;11.25;;;6.10;;
69244;SDS011;56357;52.304;4.870;2023-07-09T00:59:15;12.43;;;5.72;;
69244;SDS011;56357;52.304;4.870;2023-07-09T01:01:47;10.67;;;6.13;;
69244;SDS011;56357;52.304;4.870;2023-07-09T01:04:15;9.80;;;5.68;;
69244;SDS011;56357;52.304;4.870;2023-07-09T01:06:50;10.60;;;5.80;;
69244;SDS011;56357;52.304;4.870;2023-07-09T01:09:19;10.45;;;6.07;;
69244;SDS011;56357;52.304;4.870;2023-07-09T01:11:47;9.38;;;5.90;;
69244;SDS011;56357;52.304;4.870;2023-07-09T01:14:15;10.03;;;5.70;;
69244;SDS011;56357;52.304;4.870;2023-07-09T01:16:50;9.48;;;5.75;;
69244;SDS011;56357;52.304;4.870;2023-07-09T01:19:25;9.77;;;6.18;;
69244;SDS011;56357;52.304;4.870;2023-07-09T01:21:56;10.23;;;5.75;;
69244;SDS011;56357;52.304;4.870;2023-07-09T01:27:30;9.17;;;6.00;;
69244;SDS011;56357;52.304;4.870;2023-07-09T01:30:00;9.70;;;5.63;;
69244;SDS011;56357;52.304;4.870;2023-07-09T01:32:29;10.75;;;6.10;;
69244;SDS011;56357;52.304;4.870;2023-07-09T01:34:57;9.02;;;5.22;;
69244;SDS011;56357;52.304;4.870;2023-07-09T01:37:30;9.23;;;5.57;;
69244;SDS011;56357;52.304;4.870;2023-07-09T01:39:58;10.33;;;5.63;;
69244;SDS011;56357;52.304;4.870;2023-07-09T01:42:25;10.73;;;5.75;;
69244;SDS011;56357;52.304;4.870;2023-07-09T01:44:54;10.30;;;5.90;;
69244;SDS011;56357;52.304;4.870;2023-07-09T01:47:21;9.63;;;5.18;;
69244;SDS011;56357;52.304;4.870;2023-07-09T01:49:50;10.60;;;6.15;;
69244;SDS011;56357;52.304;4.870;2023-07-09T01:52:22;9.10;;;5.47;;
69244;SDS011;56357;52.304;4.870;2023-07-09T01:54:49;8.23;;;5.18;;
69244;SDS011;56357;52.304;4.870;2023-07-09T01:57:22;10.85;;;6.15;;
69244;SDS011;56357;52.304;4.870;2023-07-09T01:59:54;9.93;;;5.57;;
69244;SDS011;56357;52.304;4.870;2023-07-09T02:02:21;9.80;;;5.85;;
69244;SDS011;56357;52.304;4.870;2023-07-09T02:04:49;10.60;;;5.90;;
69244;SDS011;56357;52.304;4.870;2023-07-09T02:07:17;9.02;;;5.40;;
69244;SDS011;56357;52.304;4.870;2023-07-09T02:09:47;9.75;;;5.85;;
69244;SDS011;56357;52.304;4.870;2023-07-09T02:12:14;9.07;;;5.25;;
69244;SDS011;56357;52.304;4.870;2023-07-09T02:14:42;9.63;;;5.55;;
69244;SDS011;56357;52.304;4.870;2023-07-09T02:17:10;8.50;;;5.13;;
69244;SDS011;56357;52.304;4.870;2023-07-09T02:19:37;8.63;;;5.40;;
69244;SDS011;56357;52.304;4.870;2023-07-09T02:22:04;9.60;;;5.63;;
69244;SDS011;56357;52.304;4.870;2023-07-09T02:24:32;9.00;;;4.95;;
69244;SDS011;56357;52.304;4.870;2023-07-09T02:26:59;9.30;;;5.28;;
69244;SDS011;56357;52.304;4.870;2023-07-09T02:29:27;9.33;;;5.20;;
69244;SDS011;56357;52.304;4.870;2023-07-09T02:31:56;10.77;;;5.60;;
69244;SDS011;56357;52.304;4.870;2023-07-09T02:34:24;10.80;;;5.25;;
69244;SDS011;56357;52.304;4.870;2023-07-09T02:36:52;9.70;;;4.68;;
69244;SDS011;56357;52.304;4.870;2023-07-09T02:39:20;9.65;;;5.10;;
69244;SDS011;56357;52.304;4.870;2023-07-09T02:41:47;8.27;;;5.07;;
69244;SDS011;56357;52.304;4.870;2023-07-09T02:44:14;8.95;;;4.97;;
69244;SDS011;56357;52.304;4.870;2023-07-09T02:46:42;9.85;;;5.05;;
69244;SDS011;56357;52.304;4.870;2023-07-09T02:49:10;10.48;;;5.18;;
69244;SDS011;56357;52.304;4.870;2023-07-09T02:51:37;12.88;;;5.55;;
69244;SDS011;56357;52.304;4.870;2023-07-09T02:54:04;9.60;;;4.93;;
69244;SDS011;56357;52.304;4.870;2023-07-09T02:56:32;11.20;;;5.57;;
69244;SDS011;56357;52.304;4.870;2023-07-09T02:58:59;9.50;;;5.10;;
69244;SDS011;56357;52.304;4.870;2023-07-09T03:01:25;9.95;;;5.70;;
69244;SDS011;56357;52.304;4.870;2023-07-09T03:03:52;9.65;;;5.43;;
69244;SDS011;56357;52.304;4.870;2023-07-09T03:06:24;8.93;;;5.17;;
69244;SDS011;56357;52.304;4.870;2023-07-09T03:08:52;11.35;;;5.15;;
69244;SDS011;56357;52.304;4.870;2023-07-09T03:11:19;10.30;;;5.38;;
69244;SDS011;56357;52.304;4.870;2023-07-09T03:13:47;8.57;;;5.10;;
69244;SDS011;56357;52.304;4.870;2023-07-09T03:16:13;10.15;;;5.25;;
69244;SDS011;56357;52.304;4.870;2023-07-09T03:18:41;10.27;;;5.33;;
69244;SDS011;56357;52.304;4.870;2023-07-09T03:21:07;10.40;;;5.20;;
69244;SDS011;56357;52.304;4.870;2023-07-09T03:23:34;11.85;;;5.47;;
69244;SDS011;56357;52.304;4.870;2023-07-09T03:26:00;10.40;;;5.40;;
69244;SDS011;56357;52.304;4.870;2023-07-09T03:28:27;9.88;;;5.20;;
69244;SDS011;56357;52.304;4.870;2023-07-09T03:30:55;9.77;;;5.23;;
69244;SDS011;56357;52.304;4.870;2023-07-09T03:33:22;10.27;;;5.10;;
69244;SDS011;56357;52.304;4.870;2023-07-09T03:35:49;8.98;;;5.32;;
69244;SDS011;56357;52.304;4.870;2023-07-09T03:38:17;10.98;;;5.70;;
69244;SDS011;56357;52.304;4.870;2023-07-09T03:40:43;9.57;;;5.45;;
69244;SDS011;56357;52.304;4.870;2023-07-09T03:43:10;10.23;;;6.00;;
69244;SDS011;56357;52.304;4.870;2023-07-09T03:45:37;9.45;;;5.35;;
69244;SDS011;56357;52.304;4.870;2023-07-09T03:48:04;9.73;;;5.30;;
69244;SDS011;56357;52.304;4.870;2023-07-09T03:50:32;11.10;;;5.70;;
69244;SDS011;56357;52.304;4.870;2023-07-09T03:52:58;9.00;;;5.20;;
69244;SDS011;56357;52.304;4.870;2023-07-09T03:55:25;10.27;;;5.50;;
69244;SDS011;56357;52.304;4.870;2023-07-09T03:57:55;9.70;;;5.35;;
69244;SDS011;56357;52.304;4.870;2023-07-09T04:00:22;9.73;;;5.78;;
69244;SDS011;56357;52.304;4.870;2023-07-09T04:02:49;10.23;;;5.82;;
69244;SDS011;56357;52.304;4.870;2023-07-09T04:05:17;9.57;;;5.78;;
69244;SDS011;56357;52.304;4.870;2023-07-09T04:07:44;9.70;;;5.30;;
69244;SDS011;56357;52.304;4.870;2023-07-09T04:10:11;9.82;;;5.75;;
69244;SDS011;56357;52.304;4.870;2023-07-09T04:12:37;9.45;;;5.65;;
69244;SDS011;56357;52.304;4.870;2023-07-09T04:15:04;10.85;;;5.90;;
69244;SDS011;56357;52.304;4.870;2023-07-09T04:17:31;9.65;;;5.32;;
69244;SDS011;56357;52.304;4.870;2023-07-09T04:19:58;10.37;;;5.50;;
69244;SDS011;56357;52.304;4.870;2023-07-09T04:22:25;10.07;;;5.55;;
69244;SDS011;56357;52.304;4.870;2023-07-09T04:24:51;9.65;;;5.53;;
69244;SDS011;56357;52.304;4.870;2023-07-09T04:27:18;10.32;;;5.57;;
69244;SDS011;56357;52.304;4.870;2023-07-09T04:29:45;9.60;;;5.60;;
69244;SDS011;56357;52.304;4.870;2023-07-09T04:32:13;10.23;;;5.83;;
69244;SDS011;56357;52.304;4.870;2023-07-09T04:34:41;9.73;;;5.20;;
69244;SDS011;56357;52.304;4.870;2023-07-09T04:37:09;9.30;;;5.75;;
69244;SDS011;56357;52.304;4.870;2023-07-09T04:39:37;9.25;;;5.45;;
69244;SDS011;56357;52.304;4.870;2023-07-09T04:42:09;9.63;;;5.65;;
69244;SDS011;56357;52.304;4.870;2023-07-09T04:44:38;10.90;;;5.20;;
69244;SDS011;56357;52.304;4.870;2023-07-09T04:47:04;8.80;;;5.20;;
69244;SDS011;56357;52.304;4.870;2023-07-09T04:49:31;8.10;;;4.95;;
69244;SDS011;56357;52.304;4.870;2023-07-09T04:51:58;10.75;;;5.68;;
69244;SDS011;56357;52.304;4.870;2023-07-09T04:54:25;9.10;;;5.50;;
69244;SDS011;56357;52.304;4.870;2023-07-09T04:56:52;9.43;;;5.67;;
69244;SDS011;56357;52.304;4.870;2023-07-09T04:59:19;11.23;;;6.07;;
69244;SDS011;56357;52.304;4.870;2023-07-09T05:01:46;10.00;;;5.35;;
69244;SDS011;56357;52.304;4.870;2023-07-09T05:04:12;9.13;;;5.60;;
69244;SDS011;56357;52.304;4.870;2023-07-09T05:06:39;9.55;;;6.03;;
69244;SDS011;56357;52.304;4.870;2023-07-09T05:09:06;9.03;;;5.73;;
69244;SDS011;56357;52.304;4.870;2023-07-09T05:11:33;8.23;;;5.43;;
69244;SDS011;56357;52.304;4.870;2023-07-09T05:14:01;11.10;;;6.28;;
69244;SDS011;56357;52.304;4.870;2023-07-09T05:16:28;10.48;;;5.85;;
69244;SDS011;56357;52.304;4.870;2023-07-09T05:18:55;10.00;;;5.97;;
69244;SDS011;56357;52.304;4.870;2023-07-09T05:21:22;9.90;;;5.73;;
69244;SDS011;56357;52.304;4.870;2023-07-09T05:23:48;9.25;;;5.60;;
69244;SDS011;56357;52.304;4.870;2023-07-09T05:26:15;9.70;;;5.13;;
69244;SDS011;56357;52.304;4.870;2023-07-09T05:28:41;9.70;;;5.85;;
69244;SDS011;56357;52.304;4.870;2023-07-09T05:31:08;10.27;;;6.50;;
69244;SDS011;56357;52.304;4.870;2023-07-09T05:33:34;10.80;;;5.20;;
69244;SDS011;56357;52.304;4.870;2023-07-09T05:36:01;11.68;;;6.03;;
69244;SDS011;56357;52.304;4.870;2023-07-09T05:38:28;9.73;;;5.25;;
69244;SDS011;56357;52.304;4.870;2023-07-09T05:41:01;8.88;;;5.30;;
69244;SDS011;56357;52.304;4.870;2023-07-09T05:43:28;10.25;;;6.13;;
69244;SDS011;56357;52.304;4.870;2023-07-09T05:45:55;9.67;;;5.57;;
69244;SDS011;56357;52.304;4.870;2023-07-09T05:48:22;10.65;;;5.95;;
69244;SDS011;56357;52.304;4.870;2023-07-09T05:50:52;9.23;;;5.70;;
69244;SDS011;56357;52.304;4.870;2023-07-09T05:53:19;8.20;;;5.20;;
69244;SDS011;56357;52.304;4.870;2023-07-09T05:55:46;9.90;;;5.45;;
69244;SDS011;56357;52.304;4.870;2023-07-09T05:58:13;8.80;;;5.60;;
69244;SDS011;56357;52.304;4.870;2023-07-09T06:00:39;8.95;;;5.30;;
69244;SDS011;56357;52.304;4.870;2023-07-09T06:03:07;9.77;;;5.60;;
69244;SDS011;56357;52.304;4.870;2023-07-09T06:05:34;8.85;;;5.38;;
69244;SDS011;56357;52.304;4.870;2023-07-09T06:08:00;10.18;;;5.38;;
69244;SDS011;56357;52.304;4.870;2023-07-09T06:10:27;9.10;;;5.27;;
69244;SDS011;56357;52.304;4.870;2023-07-09T06:12:53;9.05;;;5.18;;
69244;SDS011;56357;52.304;4.870;2023-07-09T06:15:20;9.00;;;5.32;;
69244;SDS011;56357;52.304;4.870;2023-07-09T06:17:47;9.38;;;5.38;;
69244;SDS011;56357;52.304;4.870;2023-07-09T06:20:13;8.15;;;4.82;;
69244;SDS011;56357;52.304;4.870;2023-07-09T06:22:40;8.73;;;5.10;;
69244;SDS011;56357;52.304;4.870;2023-07-09T06:25:06;10.00;;;5.72;;
69244;SDS011;56357;52.304;4.870;2023-07-09T06:27:33;11.00;;;5.20;;
69244;SDS011;56357;52.304;4.870;2023-07-09T06:30:00;8.63;;;5.05;;
69244;SDS011;56357;52.304;4.870;2023-07-09T06:32:26;9.75;;;6.28;;
69244;SDS011;56357;52.304;4.870;2023-07-09T06:34:53;9.10;;;5.20;;
69244;SDS011;56357;52.304;4.870;2023-07-09T06:37:19;8.82;;;4.95;;
69244;SDS011;56357;52.304;4.870;2023-07-09T06:39:49;10.20;;;4.68;;
69244;SDS011;56357;52.304;4.870;2023-07-09T06:42:15;10.70;;;5.70;;
69244;SDS011;56357;52.304;4.870;2023-07-09T06:44:42;9.10;;;5.70;;
69244;SDS011;56357;52.304;4.870;2023-07-09T06:47:08;11.90;;;6.07;;
69244;SDS011;56357;52.304;4.870;2023-07-09T06:49:34;8.65;;;5.97;;
69244;SDS011;56357;52.304;4.870;2023-07-09T06:52:01;9.68;;;5.50;;
69244;SDS011;56357;52.304;4.870;2023-07-09T06:54:27;9.75;;;5.57;;
69244;SDS011;56357;52.304;4.870;2023-07-09T06:56:54;11.00;;;5.72;;
69244;SDS011;56357;52.304;4.870;2023-07-09T06:59:20;24.60;;;13.43;;
69244;SDS011;56357;52.304;4.870;2023-07-09T07:01:47;29.10;;;15.85;;
69244;SDS011;56357;52.304;4.870;2023-07-09T07:04:13;23.35;;;16.00;;
69244;SDS011;56357;52.304;4.870;2023-07-09T07:06:40;23.00;;;14.80;;
69244;SDS011;56357;52.304;4.870;2023-07-09T07:09:07;21.60;;;12.70;;
69244;SDS011;56357;52.304;4.870;2023-07-09T07:11:33;21.07;;;15.03;;
69244;SDS011;56357;52.304;4.870;2023-07-09T07:14:00;21.98;;;15.35;;
69244;SDS011;56357;52.304;4.870;2023-07-09T07:16:26;23.80;;;15.63;;
69244;SDS011;56357;52.304;4.870;2023-07-09T07:18:52;23.67;;;15.50;;
69244;SDS011;56357;52.304;4.870;2023-07-09T07:21:19;22.38;;;15.40;;
69244;SDS011;56357;52.304;4.870;2023-07-09T07:23:45;24.30;;;16.50;;
69244;SDS011;56357;52.304;4.870;2023-07-09T07:26:12;22.65;;;14.75;;
69244;SDS011;56357;52.304;4.870;2023-07-09T07:28:38;22.48;;;14.80;;
69244;SDS011;56357;52.304;4.870;2023-07-09T07:31:07;20.92;;;13.32;;
69244;SDS011;56357;52.304;4.870;2023-07-09T07:33:35;23.77;;;14.23;;
69244;SDS011;56357;52.304;4.870;2023-07-09T07:36:05;22.43;;;13.40;;
69244;SDS011;56357;52.304;4.870;2023-07-09T07:38:32;28.77;;;12.70;;
69244;SDS011;56357;52.304;4.870;2023-07-09T07:41:00;17.73;;;11.95;;
69244;SDS011;56357;52.304;4.870;2023-07-09T07:43:27;21.35;;;11.82;;
69244;SDS011;56357;52.304;4.870;2023-07-09T07:45:53;16.98;;;10.80;;
69244;SDS011;56357;52.304;4.870;2023-07-09T07:48:20;16.03;;;10.53;;
69244;SDS011;56357;52.304;4.870;2023-07-09T07:50:47;17.88;;;10.98;;
69244;SDS011;56357;52.304;4.870;2023-07-09T07:53:14;18.10;;;10.02;;
69244;SDS011;56357;52.304;4.870;2023-07-09T07:55:41;15.85;;;9.80;;
69244;SDS011;56357;52.304;4.870;2023-07-09T07:58:11;15.57;;;10.43;;
69244;SDS011;56357;52.304;4.870;2023-07-09T08:00:39;14.50;;;9.50;;
69244;SDS011;56357;52.304;4.870;2023-07-09T08:03:06;14.57;;;8.85;;
69244;SDS011;56357;52.304;4.870;2023-07-09T08:05:33;14.82;;;8.73;;
69244;SDS011;56357;52.304;4.870;2023-07-09T08:07:59;12.82;;;7.82;;
69244;SDS011;56357;52.304;4.870;2023-07-09T08:10:25;12.38;;;8.20;;
69244;SDS011;56357;52.304;4.870;2023-07-09T08:12:52;14.10;;;8.10;;
69244;SDS011;56357;52.304;4.870;2023-07-09T08:15:21;14.38;;;7.85;;
69244;SDS011;56357;52.304;4.870;2023-07-09T08:17:48;14.75;;;8.43;;
69244;SDS011;56357;52.304;4.870;2023-07-09T08:20:15;15.30;;;7.45;;
69244;SDS011;56357;52.304;4.870;2023-07-09T08:22:41;11.38;;;7.57;;
69244;SDS011;56357;52.304;4.870;2023-07-09T08:25:08;15.23;;;7.60;;
69244;SDS011;56357;52.304;4.870;2023-07-09T08:27:34;11.48;;;6.93;;
69244;SDS011;56357;52.304;4.870;2023-07-09T08:30:01;13.38;;;8.00;;
69244;SDS011;56357;52.304;4.870;2023-07-09T08:32:27;12.18;;;7.25;;
69244;SDS011;56357;52.304;4.870;2023-07-09T08:34:54;11.25;;;7.35;;
69244;SDS011;56357;52.304;4.870;2023-07-09T08:37:20;11.50;;;7.27;;
69244;SDS011;56357;52.304;4.870;2023-07-09T08:39:47;11.88;;;7.30;;
69244;SDS011;56357;52.304;4.870;2023-07-09T08:42:14;11.40;;;7.40;;
69244;SDS011;56357;52.304;4.870;2023-07-09T08:44:59;11.70;;;7.35;;
69244;SDS011;56357;52.304;4.870;2023-07-09T08:47:33;10.23;;;7.13;;
69244;SDS011;56357;52.304;4.870;2023-07-09T08:50:15;11.17;;;7.63;;
69244;SDS011;56357;52.304;4.870;2023-07-09T08:52:46;12.18;;;7.13;;
69244;SDS011;56357;52.304;4.870;2023-07-09T08:55:23;13.93;;;6.93;;
69244;SDS011;56357;52.304;4.870;2023-07-09T09:00:31;11.25;;;7.70;;
69244;SDS011;56357;52.304;4.870;2023-07-09T09:03:07;12.87;;;7.43;;
69244;SDS011;56357;52.304;4.870;2023-07-09T09:05:38;10.65;;;7.07;;
69244;SDS011;56357;52.304;4.870;2023-07-09T09:08:11;10.98;;;7.40;;
69244;SDS011;56357;52.304;4.870;2023-07-09T09:11:18;12.63;;;7.28;;
69244;SDS011;56357;52.304;4.870;2023-07-09T09:13:50;12.52;;;7.00;;
69244;SDS011;56357;52.304;4.870;2023-07-09T09:16:41;13.60;;;7.40;;
69244;SDS011;56357;52.304;4.870;2023-07-09T09:19:21;11.02;;;7.00;;
69244;SDS011;56357;52.304;4.870;2023-07-09T09:21:54;10.10;;;6.22;;
69244;SDS011;56357;52.304;4.870;2023-07-09T09:25:11;10.85;;;6.45;;
69244;SDS011;56357;52.304;4.870;2023-07-09T09:27:30;11.70;;;6.53;;
69244;SDS011;56357;52.304;4.870;2023-07-09T09:29:56;14.03;;;6.70;;
69244;SDS011;56357;52.304;4.870;2023-07-09T09:32:25;13.60;;;6.50;;
69244;SDS011;56357;52.304;4.870;2023-07-09T09:34:53;10.98;;;6.25;;
69244;SDS011;56357;52.304;4.870;2023-07-09T09:37:27;9.90;;;6.03;;
69244;SDS011;56357;52.304;4.870;2023-07-09T09:39:56;11.35;;;6.82;;
69244;SDS011;56357;52.304;4.870;2023-07-09T09:42:24;11.53;;;6.47;;
69244;SDS011;56357;52.304;4.870;2023-07-09T09:44:53;14.43;;;6.90;;
69244;SDS011;56357;52.304;4.870;2023-07-09T09:47:21;9.80;;;6.32;;
69244;SDS011;56357;52.304;4.870;2023-07-09T09:49:51;9.20;;;5.70;;
69244;SDS011;56357;52.304;4.870;2023-07-09T09:52:18;10.90;;;6.60;;
69244;SDS011;56357;52.304;4.870;2023-07-09T09:54:50;10.97;;;5.90;;
69244;SDS011;56357;52.304;4.870;2023-07-09T09:57:21;9.00;;;6.10;;
69244;SDS011;56357;52.304;4.870;2023-07-09T09:59:50;10.02;;;5.85;;
69244;SDS011;56357;52.304;4.870;2023-07-09T10:02:20;11.55;;;6.63;;
69244;SDS011;56357;52.304;4.870;2023-07-09T10:04:50;9.63;;;5.90;;
69244;SDS011;56357;52.304;4.870;2023-07-09T10:09:55;11.68;;;6.30;;
69244;SDS011;56357;52.304;4.870;2023-07-09T10:15:03;9.88;;;6.05;;
69244;SDS011;56357;52.304;4.870;2023-07-09T10:23:44;11.20;;;5.90;;
69244;SDS011;56357;52.304;4.870;2023-07-09T10:34:54;10.40;;;6.57;;
69244;SDS011;56357;52.304;4.870;2023-07-09T10:40:32;11.02;;;6.00;;
69244;SDS011;56357;52.304;4.870;2023-07-09T10:43:02;11.55;;;6.32;;
69244;SDS011;56357;52.304;4.870;2023-07-09T10:45:39;8.30;;;5.43;;
69244;SDS011;56357;52.304;4.870;2023-07-09T10:48:14;11.10;;;6.07;;
69244;SDS011;56357;52.304;4.870;2023-07-09T10:50:46;8.57;;;5.60;;
69244;SDS011;56357;52.304;4.870;2023-07-09T10:53:24;10.02;;;6.07;;
69244;SDS011;56357;52.304;4.870;2023-07-09T10:55:53;8.80;;;5.63;;
69244;SDS011;56357;52.304;4.870;2023-07-09T10:58:33;9.77;;;5.68;;
69244;SDS011;56357;52.304;4.870;2023-07-09T11:01:03;9.50;;;5.40;;
69244;SDS011;56357;52.304;4.870;2023-07-09T11:03:41;10.02;;;6.15;;
69244;SDS011;56357;52.304;4.870;2023-07-09T11:06:22;8.88;;;5.80;;
69244;SDS011;56357;52.304;4.870;2023-07-09T11:08:58;10.02;;;5.63;;
69244;SDS011;56357;52.304;4.870;2023-07-09T11:14:02;8.90;;;5.63;;
69244;SDS011;56357;52.304;4.870;2023-07-09T11:16:37;10.02;;;5.45;;
69244;SDS011;56357;52.304;4.870;2023-07-09T11:19:13;9.00;;;5.55;;
69244;SDS011;56357;52.304;4.870;2023-07-09T11:21:59;9.50;;;5.60;;
69244;SDS011;56357;52.304;4.870;2023-07-09T11:24:51;10.70;;;5.70;;
69244;SDS011;56357;52.304;4.870;2023-07-09T11:27:20;8.97;;;5.60;;
69244;SDS011;56357;52.304;4.870;2023-07-09T11:29:59;11.05;;;5.22;;
69244;SDS011;56357;52.304;4.870;2023-07-09T11:32:28;9.05;;;5.30;;
69244;SDS011;56357;52.304;4.870;2023-07-09T11:35:05;9.15;;;5.40;;
69244;SDS011;56357;52.304;4.870;2023-07-09T11:37:43;8.57;;;5.63;;
69244;SDS011;56357;52.304;4.870;2023-07-09T11:40:11;9.03;;;4.77;;
69244;SDS011;56357;52.304;4.870;2023-07-09T11:42:55;8.55;;;5.40;;
69244;SDS011;56357;52.304;4.870;2023-07-09T11:45:28;10.38;;;5.88;;
69244;SDS011;56357;52.304;4.870;2023-07-09T11:48:15;9.38;;;5.07;;
69244;SDS011;56357;52.304;4.870;2023-07-09T11:50:51;9.77;;;5.38;;
69244;SDS011;56357;52.304;4.870;2023-07-09T11:53:31;10.47;;;5.40;;
69244;SDS011;56357;52.304;4.870;2023-07-09T11:56:04;10.73;;;5.47;;
69244;SDS011;56357;52.304;4.870;2023-07-09T11:58:33;9.68;;;5.13;;
69244;SDS011;56357;52.304;4.870;2023-07-09T12:01:00;10.77;;;5.28;;
69244;SDS011;56357;52.304;4.870;2023-07-09T12:03:29;9.52;;;5.13;;
69244;SDS011;56357;52.304;4.870;2023-07-09T12:06:03;8.80;;;5.40;;
69244;SDS011;56357;52.304;4.870;2023-07-09T12:08:35;9.73;;;5.35;;
69244;SDS011;56357;52.304;4.870;2023-07-09T12:11:05;9.63;;;5.50;;
69244;SDS011;56357;52.304;4.870;2023-07-09T12:13:38;10.45;;;5.05;;
69244;SDS011;56357;52.304;4.870;2023-07-09T12:18:52;11.27;;;4.80;;
69244;SDS011;56357;52.304;4.870;2023-07-09T12:21:19;12.93;;;5.32;;
69244;SDS011;56357;52.304;4.870;2023-07-09T12:23:46;8.75;;;4.70;;
69244;SDS011;56357;52.304;4.870;2023-07-09T12:26:14;9.13;;;5.00;;
69244;SDS011;56357;52.304;4.870;2023-07-09T12:28:42;10.25;;;5.45;;
69244;SDS011;56357;52.304;4.870;2023-07-09T12:31:11;8.17;;;5.17;;
69244;SDS011;56357;52.304;4.870;2023-07-09T12:33:46;9.32;;;4.90;;
69244;SDS011;56357;52.304;4.870;2023-07-09T12:36:18;9.73;;;4.70;;
69244;SDS011;56357;52.304;4.870;2023-07-09T12:38:49;10.73;;;5.40;;
69244;SDS011;56357;52.304;4.870;2023-07-09T12:41:22;8.65;;;4.97;;
69244;SDS011;56357;52.304;4.870;2023-07-09T12:43:53;11.30;;;5.43;;
69244;SDS011;56357;52.304;4.870;2023-07-09T12:46:21;8.63;;;4.55;;
69244;SDS011;56357;52.304;4.870;2023-07-09T12:48:48;11.82;;;4.93;;
69244;SDS011;56357;52.304;4.870;2023-07-09T12:51:18;8.00;;;4.22;;
69244;SDS011;56357;52.304;4.870;2023-07-09T12:53:49;8.93;;;4.80;;
69244;SDS011;56357;52.304;4.870;2023-07-09T12:56:26;8.77;;;4.80;;
69244;SDS011;56357;52.304;4.870;2023-07-09T12:58:56;8.27;;;4.80;;
69244;SDS011;56357;52.304;4.870;2023-07-09T13:01:23;8.25;;;4.53;;
69244;SDS011;56357;52.304;4.870;2023-07-09T13:03:57;11.35;;;4.47;;
69244;SDS011;56357;52.304;4.870;2023-07-09T13:06:28;9.23;;;4.47;;
69244;SDS011;56357;52.304;4.870;2023-07-09T13:08:57;8.63;;;4.77;;
69244;SDS011;56357;52.304;4.870;2023-07-09T13:11:31;8.52;;;4.32;;
69244;SDS011;56357;52.304;4.870;2023-07-09T13:14:03;8.25;;;4.28;;
69244;SDS011;56357;52.304;4.870;2023-07-09T13:16:37;9.55;;;4.38;;
69244;SDS011;56357;52.304;4.870;2023-07-09T13:19:05;8.85;;;4.30;;
69244;SDS011;56357;52.304;4.870;2023-07-09T13:21:31;8.47;;;3.60;;
69244;SDS011;56357;52.304;4.870;2023-07-09T13:23:58;8.38;;;4.22;;
69244;SDS011;56357;52.304;4.870;2023-07-09T13:26:25;9.13;;;4.32;;
69244;SDS011;56357;52.304;4.870;2023-07-09T13:28:52;10.30;;;4.20;;
69244;SDS011;56357;52.304;4.870;2023-07-09T13:31:19;12.98;;;3.90;;
69244;SDS011;56357;52.304;4.870;2023-07-09T13:33:50;11.03;;;4.47;;
69244;SDS011;56357;52.304;4.870;2023-07-09T13:36:20;8.93;;;4.10;;
69244;SDS011;56357;52.304;4.870;2023-07-09T13:38:47;10.25;;;4.32;;
69244;SDS011;56357;52.304;4.870;2023-07-09T13:41:14;12.38;;;4.20;;
69244;SDS011;56357;52.304;4.870;2023-07-09T13:43:44;8.68;;;4.25;;
69244;SDS011;56357;52.304;4.870;2023-07-09T13:46:13;8.40;;;3.50;;
69244;SDS011;56357;52.304;4.870;2023-07-09T13:48:40;11.77;;;4.53;;
69244;SDS011;56357;52.304;4.870;2023-07-09T13:51:19;10.57;;;4.25;;
69244;SDS011;56357;52.304;4.870;2023-07-09T13:53:49;10.38;;;4.55;;
69244;SDS011;56357;52.304;4.870;2023-07-09T13:56:17;11.50;;;4.40;;
69244;SDS011;56357;52.304;4.870;2023-07-09T13:58:44;10.97;;;4.60;;
69244;SDS011;56357;52.304;4.870;2023-07-09T14:01:14;9.85;;;4.68;;
69244;SDS011;56357;52.304;4.870;2023-07-09T14:03:47;11.50;;;4.95;;
69244;SDS011;56357;52.304;4.870;2023-07-09T14:06:15;12.20;;;5.43;;
69244;SDS011;56357;52.304;4.870;2023-07-09T14:08:43;11.98;;;4.97;;
69244;SDS011;56357;52.304;4.870;2023-07-09T14:11:10;7.90;;;4.93;;
69244;SDS011;56357;52.304;4.870;2023-07-09T14:13:38;10.27;;;5.40;;
69244;SDS011;56357;52.304;4.870;2023-07-09T14:16:06;10.63;;;4.78;;
69244;SDS011;56357;52.304;4.870;2023-07-09T14:18:35;11.38;;;4.78;;
69244;SDS011;56357;52.304;4.870;2023-07-09T14:21:05;8.93;;;4.45;;
69244;SDS011;56357;52.304;4.870;2023-07-09T14:23:39;12.07;;;4.77;;
69244;SDS011;56357;52.304;4.870;2023-07-09T14:26:07;9.93;;;4.68;;
69244;SDS011;56357;52.304;4.870;2023-07-09T14:28:35;9.27;;;4.72;;
69244;SDS011;56357;52.304;4.870;2023-07-09T14:31:04;12.30;;;5.38;;
69244;SDS011;56357;52.304;4.870;2023-07-09T14:33:39;11.02;;;4.32;;
69244;SDS011;56357;52.304;4.870;2023-07-09T14:36:06;11.33;;;4.60;;
69244;SDS011;56357;52.304;4.870;2023-07-09T14:38:32;8.65;;;4.20;;
69244;SDS011;56357;52.304;4.870;2023-07-09T14:40:59;7.90;;;4.25;;
69244;SDS011;56357;52.304;4.870;2023-07-09T14:43:30;10.68;;;4.60;;
69244;SDS011;56357;52.304;4.870;2023-07-09T14:45:57;11.07;;;4.35;;
69244;SDS011;56357;52.304;4.870;2023-07-09T14:48:23;12.63;;;4.60;;
69244;SDS011;56357;52.304;4.870;2023-07-09T14:50:50;10.85;;;4.45;;
69244;SDS011;56357;52.304;4.870;2023-07-09T14:53:20;10.25;;;4.13;;
69244;SDS011;56357;52.304;4.870;2023-07-09T14:55:51;7.75;;;4.07;;
69244;SDS011;56357;52.304;4.870;2023-07-09T14:58:20;8.88;;;4.20;;
69244;SDS011;56357;52.304;4.870;2023-07-09T15:00:48;8.40;;;4.23;;
69244;SDS011;56357;52.304;4.870;2023-07-09T15:03:19;12.10;;;4.95;;
69244;SDS011;56357;52.304;4.870;2023-07-09T15:05:46;13.15;;;4.95;;
69244;SDS011;56357;52.304;4.870;2023-07-09T15:08:14;10.80;;;4.60;;
69244;SDS011;56357;52.304;4.870;2023-07-09T15:10:42;15.23;;;4.72;;
69244;SDS011;56357;52.304;4.870;2023-07-09T15:13:16;9.90;;;4.20;;
69244;SDS011;56357;52.304;4.870;2023-07-09T15:15:45;9.88;;;4.53;;
69244;SDS011;56357;52.304;4.870;2023-07-09T15:18:13;8.30;;;4.13;;
69244;SDS011;56357;52.304;4.870;2023-07-09T15:20:43;10.10;;;4.55;;
69244;SDS011;56357;52.304;4.870;2023-07-09T15:23:14;12.52;;;4.70;;
69244;SDS011;56357;52.304;4.870;2023-07-09T15:25:40;10.83;;;4.43;;
69244;SDS011;56357;52.304;4.870;2023-07-09T15:28:09;9.35;;;4.00;;
69244;SDS011;56357;52.304;4.870;2023-07-09T15:30:36;12.75;;;4.65;;